Time;durP1;ratioP1;P1;durP2;ratioP2;P2;SDS_P1;SDS_P2;PMS_P1;PMS_P2;Temp;Humidity;BMP_temperature;BMP_pressure;BME280_temperature;BME280_humidity;BME280_pressure;Samples;Min_cycle;Max_cycle;Signal;HPM_P1;HPM_P2
2022/07/09 00:01:45;;;;;;;2.15;1.58;;;20.40;52.40;;;;;;4982781;28;20050;-55
2022/07/09 00:04:13;;;;;;;2.53;1.70;;;20.40;52.50;;;;;;4982527;28;20058;-59
2022/07/09 00:06:40;;;;;;;3.25;1.85;;;20.40;52.60;;;;;;4982714;28;20061;-57
2022/07/09 00:09:08;;;;;;;4.32;1.80;;;20.40;52.60;;;;;;4982566;28;20054;-57
2022/07/09 00:11:37;;;;;;;3.50;1.98;;;20.40;52.70;;;;;;4983892;28;20050;-56
2022/07/09 00:14:04;;;;;;;3.42;1.80;;;20.30;52.70;;;;;;4981053;28;20058;-57
2022/07/09 00:16:31;;;;;;;3.25;1.63;;;20.30;52.70;;;;;;4981105;28;20410;-55
2022/07/09 00:18:59;;;;;;;4.00;2.13;;;20.30;52.70;;;;;;4982417;28;20050;-58
2022/07/09 00:21:26;;;;;;;5.50;2.08;;;20.30;52.60;;;;;;4983396;28;20053;-56
2022/07/09 00:23:54;;;;;;;7.10;2.08;;;20.30;52.70;;;;;;4981498;28;20438;-56
2022/07/09 00:26:21;;;;;;;3.17;1.83;;;20.20;52.60;;;;;;4981671;28;20046;-54
2022/07/09 00:28:50;;;;;;;4.30;2.00;;;20.20;52.60;;;;;;4982780;28;20058;-54
2022/07/09 00:31:17;;;;;;;3.53;1.77;;;20.20;52.70;;;;;;4981800;28;20061;-59
2022/07/09 00:33:45;;;;;;;5.80;1.58;;;20.20;52.80;;;;;;4981096;28;20050;-57
2022/07/09 00:36:12;;;;;;;3.90;1.42;;;20.10;53.20;;;;;;4980479;28;20047;-53
2022/07/09 00:38:40;;;;;;;3.67;1.55;;;20.10;52.90;;;;;;4982871;28;20058;-57
2022/07/09 00:41:07;;;;;;;2.33;1.73;;;20.10;52.90;;;;;;4983147;28;20058;-56
2022/07/09 00:43:35;;;;;;;3.60;1.80;;;20.00;52.90;;;;;;4981299;28;20058;-56
2022/07/09 00:46:04;;;;;;;5.43;2.20;;;20.00;53.00;;;;;;4980765;28;20418;-55
2022/07/09 00:48:31;;;;;;;3.90;1.77;;;20.00;53.20;;;;;;4982009;28;20073;-58
2022/07/09 00:50:59;;;;;;;6.22;2.00;;;20.00;53.20;;;;;;4981869;28;20487;-55
2022/07/09 00:53:26;;;;;;;2.28;1.67;;;19.90;53.30;;;;;;4981594;28;20054;-57
2022/07/09 00:55:55;;;;;;;3.63;1.83;;;19.90;53.30;;;;;;4980553;28;20628;-53
2022/07/09 00:58:23;;;;;;;4.72;1.75;;;19.90;53.40;;;;;;4980726;28;20058;-59
2022/07/09 01:00:52;;;;;;;4.45;2.08;;;19.90;53.50;;;;;;4980301;28;20062;-53
2022/07/09 01:03:21;;;;;;;4.78;1.65;;;19.80;53.60;;;;;;4978209;28;20391;-55
2022/07/09 01:05:49;;;;;;;5.80;2.10;;;19.80;53.70;;;;;;4980772;28;20050;-54
2022/07/09 01:08:17;;;;;;;3.38;2.00;;;19.80;53.70;;;;;;4982729;28;20556;-59
2022/07/09 01:10:45;;;;;;;3.45;2.10;;;19.70;53.80;;;;;;4985812;28;20409;-57
2022/07/09 01:13:13;;;;;;;3.67;2.10;;;19.70;53.90;;;;;;4984607;28;20502;-57
2022/07/09 01:15:40;;;;;;;4.15;2.10;;;19.70;53.90;;;;;;4983878;28;20902;-55
2022/07/09 01:18:11;;;;;;;3.72;2.25;;;19.70;54.00;;;;;;4983343;28;20058;-59
2022/07/09 01:20:40;;;;;;;8.63;2.58;;;19.70;54.20;;;;;;4984606;28;20065;-58
2022/07/09 01:23:07;;;;;;;3.53;1.63;;;19.70;54.20;;;;;;4985552;28;20069;-54
2022/07/09 01:25:37;;;;;;;3.70;1.90;;;19.60;54.20;;;;;;4981714;28;20430;-56
2022/07/09 01:28:06;;;;;;;6.40;2.08;;;19.60;54.30;;;;;;4984752;28;20585;-55
2022/07/09 01:30:35;;;;;;;4.32;2.00;;;19.60;54.30;;;;;;4984082;28;20050;-54
2022/07/09 01:33:02;;;;;;;4.63;2.20;;;19.60;54.40;;;;;;4984446;28;20061;-57
2022/07/09 01:35:30;;;;;;;5.03;2.20;;;19.60;54.40;;;;;;4983873;28;20050;-55
2022/07/09 01:37:58;;;;;;;3.13;2.08;;;19.50;54.40;;;;;;4982138;28;21274;-56
2022/07/09 01:40:26;;;;;;;4.00;1.83;;;19.50;54.50;;;;;;4980778;28;20050;-56
2022/07/09 01:42:54;;;;;;;2.80;1.60;;;19.50;54.50;;;;;;4985739;28;20054;-56
2022/07/09 01:45:21;;;;;;;4.95;2.00;;;19.50;54.60;;;;;;4983918;28;20058;-59
2022/07/09 01:47:49;;;;;;;4.78;2.33;;;19.40;54.60;;;;;;4984047;28;20534;-53
2022/07/09 01:50:16;;;;;;;4.50;2.30;;;19.40;54.60;;;;;;4985529;28;20069;-54
2022/07/09 01:52:44;;;;;;;2.55;1.58;;;19.40;54.60;;;;;;4984300;28;20061;-58
2022/07/09 01:55:13;;;;;;;4.13;2.10;;;19.40;54.70;;;;;;4985871;28;20724;-55
2022/07/09 01:57:41;;;;;;;4.38;2.53;;;19.40;54.80;;;;;;4982614;28;20050;-58
2022/07/09 02:00:09;;;;;;;3.17;1.88;;;19.40;54.80;;;;;;4984720;28;20058;-59
2022/07/09 02:02:36;;;;;;;2.80;1.90;;;19.30;54.80;;;;;;4983233;28;20061;-55
2022/07/09 02:05:04;;;;;;;4.95;2.13;;;19.30;54.90;;;;;;4984775;28;20201;-55
2022/07/09 02:07:32;;;;;;;4.05;2.35;;;19.30;54.90;;;;;;4983522;28;20050;-54
2022/07/09 02:09:59;;;;;;;6.22;2.33;;;19.30;55.00;;;;;;4985517;28;20054;-59
2022/07/09 02:12:28;;;;;;;6.72;2.00;;;19.30;55.00;;;;;;4983633;28;20065;-56
2022/07/09 02:14:56;;;;;;;3.67;1.80;;;19.30;55.10;;;;;;4985178;28;20062;-57
2022/07/09 02:17:23;;;;;;;3.08;1.95;;;19.20;55.10;;;;;;4982533;28;20050;-57
2022/07/09 02:19:51;;;;;;;5.07;1.90;;;19.20;55.10;;;;;;4985553;28;20506;-57
2022/07/09 02:22:19;;;;;;;3.28;1.90;;;19.20;55.20;;;;;;4983944;28;20061;-56
2022/07/09 02:24:46;;;;;;;3.58;1.60;;;19.20;55.20;;;;;;4984985;28;20077;-58
2022/07/09 02:27:14;;;;;;;5.28;2.03;;;19.20;55.30;;;;;;4982060;28;20081;-55
2022/07/09 02:29:43;;;;;;;4.07;1.83;;;19.10;55.30;;;;;;4983708;28;20065;-55
2022/07/09 02:32:11;;;;;;;6.38;2.25;;;19.10;55.40;;;;;;4983546;28;20058;-57
2022/07/09 02:34:38;;;;;;;3.08;1.80;;;19.10;55.50;;;;;;4983745;28;20054;-54
2022/07/09 02:37:06;;;;;;;3.20;1.70;;;19.10;55.60;;;;;;4983588;28;20054;-55
2022/07/09 02:39:34;;;;;;;2.58;1.80;;;19.10;55.50;;;;;;4984567;28;20824;-56
2022/07/09 02:42:02;;;;;;;2.90;2.00;;;19.10;55.60;;;;;;4985295;28;20047;-57
2022/07/09 02:44:29;;;;;;;2.30;1.92;;;19.00;55.60;;;;;;4983086;28;20053;-56
2022/07/09 02:46:59;;;;;;;4.75;2.17;;;19.00;55.60;;;;;;4981184;28;20057;-55
2022/07/09 02:49:26;;;;;;;3.40;1.70;;;19.00;55.80;;;;;;4984203;28;20081;-56
2022/07/09 02:51:54;;;;;;;4.82;2.50;;;19.00;55.80;;;;;;4984131;28;20062;-58
2022/07/09 02:54:23;;;;;;;3.30;2.30;;;19.00;55.80;;;;;;4983299;28;20479;-55
2022/07/09 02:56:50;;;;;;;3.50;2.15;;;19.00;56.40;;;;;;4978971;28;20054;-58
2022/07/09 02:59:18;;;;;;;5.80;2.70;;;19.00;55.90;;;;;;4982533;28;20057;-52
2022/07/09 03:01:46;;;;;;;3.28;1.77;;;18.90;56.00;;;;;;4982215;28;20532;-55
2022/07/09 03:04:14;;;;;;;3.90;2.65;;;18.90;56.00;;;;;;4984225;28;20062;-55
2022/07/09 03:06:42;;;;;;;3.80;2.35;;;18.90;56.20;;;;;;4983627;28;20054;-55
2022/07/09 03:09:10;;;;;;;3.78;2.15;;;18.90;56.10;;;;;;4984362;28;20090;-58
2022/07/09 03:11:37;;;;;;;5.13;2.55;;;18.90;56.20;;;;;;4984248;28;20062;-55
2022/07/09 03:14:05;;;;;;;3.88;1.95;;;18.90;56.20;;;;;;4979891;28;20058;-56
2022/07/09 03:16:32;;;;;;;2.92;1.88;;;18.90;56.30;;;;;;4982492;28;20051;-58
2022/07/09 03:19:00;;;;;;;3.17;2.17;;;18.90;56.30;;;;;;4983820;28;20061;-54
2022/07/09 03:21:29;;;;;;;5.75;2.30;;;18.90;56.30;;;;;;4984636;28;20062;-54
2022/07/09 03:23:56;;;;;;;5.15;1.95;;;18.90;56.40;;;;;;4981590;28;20058;-56
2022/07/09 03:26:25;;;;;;;4.63;2.42;;;18.90;56.30;;;;;;4982453;28;20058;-54
2022/07/09 03:28:52;;;;;;;4.03;2.15;;;18.90;56.40;;;;;;4979593;28;20058;-55
2022/07/09 03:31:20;;;;;;;5.05;2.10;;;18.80;56.30;;;;;;4981717;28;20054;-52
2022/07/09 03:33:47;;;;;;;6.15;2.42;;;18.80;56.30;;;;;;4983104;28;20050;-54
2022/07/09 03:36:15;;;;;;;5.05;2.92;;;18.80;56.30;;;;;;4983813;28;20058;-55
2022/07/09 03:38:44;;;;;;;3.33;2.17;;;18.80;56.40;;;;;;4984136;28;20494;-59
2022/07/09 03:41:11;;;;;;;4.28;2.35;;;18.80;56.50;;;;;;4983945;28;20058;-56
2022/07/09 03:43:39;;;;;;;6.22;2.65;;;18.70;56.50;;;;;;4983461;28;20058;-56
2022/07/09 03:46:06;;;;;;;4.30;2.55;;;18.70;56.60;;;;;;4983393;28;20061;-55
2022/07/09 03:48:35;;;;;;;5.35;2.80;;;18.80;56.70;;;;;;4983092;28;20050;-59
2022/07/09 03:51:02;;;;;;;6.53;3.10;;;18.70;57.30;;;;;;4981141;28;20064;-52
2022/07/09 03:53:29;;;;;;;5.68;2.70;;;18.70;56.90;;;;;;4983424;28;20061;-55
2022/07/09 03:55:58;;;;;;;7.72;3.42;;;18.70;57.00;;;;;;4983381;28;20085;-56
2022/07/09 03:58:26;;;;;;;6.82;2.90;;;18.70;57.20;;;;;;4982919;28;20050;-56
2022/07/09 04:00:54;;;;;;;6.05;2.55;;;18.70;57.20;;;;;;4983483;28;20058;-54
2022/07/09 04:03:22;;;;;;;5.32;2.55;;;18.80;57.40;;;;;;4983571;28;20073;-53
2022/07/09 04:05:49;;;;;;;5.45;2.38;;;18.80;57.40;;;;;;4983402;28;20075;-52
2022/07/09 04:08:17;;;;;;;4.25;2.25;;;18.80;57.40;;;;;;4980656;28;20041;-59
2022/07/09 04:10:46;;;;;;;5.53;2.30;;;18.80;57.50;;;;;;4989878;28;20046;-58
2022/07/09 04:13:15;;;;;;;4.82;2.35;;;18.80;57.50;;;;;;4975362;28;20061;-53
2022/07/09 04:15:43;;;;;;;3.83;2.47;;;18.90;57.70;;;;;;4981203;28;20058;-59
2022/07/09 04:18:10;;;;;;;8.70;2.72;;;18.90;57.60;;;;;;4981703;28;20565;-57
2022/07/09 04:20:38;;;;;;;4.85;2.10;;;18.90;57.70;;;;;;4974779;28;20054;-57
2022/07/09 04:23:05;;;;;;;3.85;2.10;;;19.00;57.70;;;;;;4971964;28;20418;-57
2022/07/09 04:25:33;;;;;;;5.90;2.35;;;19.00;57.80;;;;;;4971312;28;20062;-59
2022/07/09 04:28:01;;;;;;;4.43;1.90;;;19.00;57.80;;;;;;4971858;28;20050;-56
2022/07/09 04:30:30;;;;;;;5.40;2.58;;;19.00;57.80;;;;;;4974425;28;20513;-56
2022/07/09 04:32:57;;;;;;;4.47;2.40;;;19.10;57.80;;;;;;4973154;28;20062;-58
2022/07/09 04:35:24;;;;;;;5.97;3.40;;;19.10;57.80;;;;;;4971699;28;20062;-56
2022/07/09 04:37:52;;;;;;;9.07;3.30;;;19.10;57.70;;;;;;4977396;28;20073;-56
2022/07/09 04:40:19;;;;;;;7.30;3.13;;;19.10;57.70;;;;;;4963052;28;20413;-57
2022/07/09 04:42:47;;;;;;;7.85;3.50;;;19.20;57.70;;;;;;4973268;28;20061;-52
2022/07/09 04:45:15;;;;;;;6.63;3.05;;;19.20;57.70;;;;;;4977604;28;20053;-58
2022/07/09 04:47:44;;;;;;;25.00;12.23;;;19.20;57.60;;;;;;4972782;28;20510;-52
2022/07/09 04:50:12;;;;;;;18.02;9.02;;;19.20;57.60;;;;;;4973761;28;20057;-57
2022/07/09 04:52:40;;;;;;;12.02;6.35;;;19.30;57.60;;;;;;4974742;28;20062;-57
2022/07/09 04:55:10;;;;;;;4.85;3.40;;;19.30;57.50;;;;;;4971756;28;20055;-59
2022/07/09 04:57:37;;;;;;;9.75;3.40;;;19.40;57.50;;;;;;4971238;28;20417;-57
2022/07/09 05:00:06;;;;;;;9.02;3.88;;;19.40;57.40;;;;;;4975242;28;20398;-59
2022/07/09 05:02:33;;;;;;;6.57;3.42;;;19.40;57.40;;;;;;4974507;28;20053;-52
2022/07/09 05:05:03;;;;;;;6.40;3.05;;;19.40;57.30;;;;;;4975212;28;20414;-57
2022/07/09 05:07:31;;;;;;;7.63;3.53;;;19.50;57.10;;;;;;4974263;28;20069;-58
2022/07/09 05:09:58;;;;;;;3.95;2.95;;;19.50;57.10;;;;;;4975100;28;20497;-60
2022/07/09 05:12:26;;;;;;;6.40;3.10;;;19.60;57.20;;;;;;4976142;28;20054;-58
2022/07/09 05:14:54;;;;;;;6.05;3.03;;;19.60;57.00;;;;;;4975556;28;20104;-57
2022/07/09 05:17:22;;;;;;;12.13;3.20;;;19.60;56.90;;;;;;4985453;28;20541;-54
2022/07/09 05:19:49;;;;;;;7.57;3.00;;;19.60;57.10;;;;;;4974260;28;20738;-54
2022/07/09 05:22:18;;;;;;;17.67;3.83;;;19.70;57.10;;;;;;4971895;28;20058;-56
2022/07/09 05:24:46;;;;;;;21.58;11.35;;;19.70;56.90;;;;;;4976815;28;20138;-53
2022/07/09 05:27:13;;;;;;;12.93;4.68;;;19.70;56.80;;;;;;4976070;28;20077;-56
2022/07/09 05:29:41;;;;;;;6.85;3.78;;;19.70;56.60;;;;;;4974503;28;20513;-57
2022/07/09 05:32:09;;;;;;;7.20;3.63;;;19.70;56.60;;;;;;4974710;28;20058;-59
2022/07/09 05:34:36;;;;;;;7.55;4.10;;;19.70;56.90;;;;;;4978989;28;20058;-53
2022/07/09 05:37:04;;;;;;;5.38;3.30;;;19.70;56.90;;;;;;4985791;28;20499;-59
2022/07/09 05:39:33;;;;;;;3.92;3.17;;;19.70;56.90;;;;;;4986871;28;20050;-55
2022/07/09 05:42:01;;;;;;;12.55;3.08;;;19.80;56.80;;;;;;4984460;28;20058;-58
2022/07/09 05:44:28;;;;;;;7.60;3.45;;;19.80;56.90;;;;;;4984655;28;20054;-59
2022/07/09 05:46:56;;;;;;;9.63;3.85;;;19.80;57.00;;;;;;4985560;28;20058;-57
2022/07/09 05:49:23;;;;;;;6.45;3.28;;;19.80;57.00;;;;;;4985671;28;20050;-56
2022/07/09 05:51:51;;;;;;;7.88;3.45;;;19.90;57.00;;;;;;4986096;28;20058;-55
2022/07/09 05:54:18;;;;;;;8.90;3.65;;;19.90;56.90;;;;;;4984580;28;20541;-60
2022/07/09 05:56:47;;;;;;;6.25;3.60;;;20.00;56.80;;;;;;4983155;28;20065;-60
2022/07/09 05:59:15;;;;;;;5.22;3.13;;;20.00;56.70;;;;;;4983765;28;20118;-58
2022/07/09 06:01:42;;;;;;;8.38;3.35;;;20.00;56.60;;;;;;4984244;28;20054;-57
2022/07/09 06:04:10;;;;;;;6.47;3.72;;;20.10;56.60;;;;;;4984470;28;20057;-58
2022/07/09 06:06:38;;;;;;;5.75;3.13;;;20.10;56.50;;;;;;4984646;28;20058;-58
2022/07/09 06:09:05;;;;;;;6.63;3.85;;;20.20;56.40;;;;;;4984087;28;20050;-58
2022/07/09 06:11:33;;;;;;;7.80;3.92;;;20.20;56.40;;;;;;4984423;28;20065;-59
2022/07/09 06:14:02;;;;;;;8.75;4.30;;;20.30;56.40;;;;;;4985235;28;20054;-58
2022/07/09 06:16:29;;;;;;;8.38;4.20;;;20.30;56.40;;;;;;4981973;28;20483;-59
2022/07/09 06:18:57;;;;;;;9.02;4.63;;;20.30;56.40;;;;;;4981478;28;20058;-58
2022/07/09 06:21:24;;;;;;;10.43;5.80;;;20.40;56.50;;;;;;4980920;28;20050;-57
2022/07/09 06:23:52;;;;;;;8.30;4.88;;;20.50;56.40;;;;;;4983648;28;20054;-59
2022/07/09 06:26:19;;;;;;;10.43;5.60;;;20.60;56.40;;;;;;4983611;28;20410;-60
2022/07/09 06:28:47;;;;;;;9.65;4.82;;;20.60;56.60;;;;;;4983394;28;20049;-57
2022/07/09 06:31:15;;;;;;;12.07;6.13;;;20.60;56.50;;;;;;4983111;28;20049;-60
2022/07/09 06:33:43;;;;;;;13.75;6.40;;;20.70;56.40;;;;;;4982856;28;20487;-56
2022/07/09 06:36:10;;;;;;;14.57;7.03;;;20.70;56.60;;;;;;4980633;28;20046;-58
2022/07/09 06:39:44;;;;;;;16.08;6.50;;;20.80;56.60;;;;;;4980745;28;20057;-58
2022/07/09 06:41:25;;;;;;;15.48;7.72;;;20.70;56.60;;;;;;4983346;28;20073;-60
2022/07/09 06:43:53;;;;;;;9.38;5.80;;;20.80;57.00;;;;;;4980966;28;20541;-57
2022/07/09 06:46:21;;;;;;;17.88;6.63;;;20.80;56.40;;;;;;4981807;28;20054;-57
2022/07/09 06:48:49;;;;;;;9.15;6.30;;;20.80;56.50;;;;;;4981963;28;20061;-58
2022/07/09 06:51:16;;;;;;;9.45;6.35;;;20.80;56.60;;;;;;4982100;28;20043;-59
2022/07/09 06:53:44;;;;;;;13.88;8.88;;;20.80;56.70;;;;;;4983440;28;20055;-60
2022/07/09 06:56:11;;;;;;;14.23;8.63;;;20.90;56.90;;;;;;4980449;28;20054;-58
2022/07/09 06:58:39;;;;;;;16.23;8.52;;;20.90;56.70;;;;;;4983217;28;20058;-60
2022/07/09 07:01:06;;;;;;;12.80;7.75;;;20.90;56.70;;;;;;4979039;28;20087;-58
2022/07/09 07:03:35;;;;;;;14.00;7.88;;;21.00;56.80;;;;;;4974515;28;20051;-58
2022/07/09 07:06:03;;;;;;;15.88;8.90;;;21.00;57.10;;;;;;4971205;28;20057;-58
2022/07/09 07:08:30;;;;;;;11.50;7.97;;;21.10;56.90;;;;;;4975250;28;20414;-58
2022/07/09 07:10:57;;;;;;;13.05;7.55;;;21.10;57.10;;;;;;4978985;28;20051;-57
2022/07/09 07:13:25;;;;;;;16.48;7.68;;;21.20;57.10;;;;;;4974769;28;20054;-58
2022/07/09 07:15:52;;;;;;;10.27;7.18;;;21.20;57.00;;;;;;4979809;28;21338;-52
2022/07/09 07:18:20;;;;;;;16.48;9.90;;;21.30;57.10;;;;;;4976965;28;20058;-55
2022/07/09 07:20:49;;;;;;;18.05;10.10;;;21.30;56.80;;;;;;4974695;28;20050;-60
2022/07/09 07:23:17;;;;;;;13.82;8.55;;;21.30;56.80;;;;;;4977649;28;20046;-57
2022/07/09 07:25:44;;;;;;;11.20;8.43;;;21.30;56.90;;;;;;4981044;28;20054;-57
2022/07/09 07:28:11;;;;;;;14.30;8.05;;;21.40;57.00;;;;;;4979143;28;20058;-58
2022/07/09 07:30:39;;;;;;;15.65;8.82;;;21.40;57.40;;;;;;4979420;28;20065;-49
2022/07/09 07:33:06;;;;;;;16.23;9.00;;;21.40;56.90;;;;;;4979120;28;20065;-48
2022/07/09 07:35:34;;;;;;;13.07;7.82;;;21.30;56.50;;;;;;4977246;28;20901;-53
2022/07/09 07:38:03;;;;;;;13.20;8.10;;;21.30;56.60;;;;;;4976968;28;20608;-55
2022/07/09 07:40:30;;;;;;;16.40;7.93;;;21.20;57.10;;;;;;4982006;28;20054;-52
2022/07/09 07:42:57;;;;;;;13.65;8.65;;;21.20;57.20;;;;;;4978485;28;20525;-56
2022/07/09 07:45:25;;;;;;;12.25;8.38;;;21.20;57.20;;;;;;4973487;28;20058;-53
2022/07/09 07:47:54;;;;;;;19.40;9.48;;;21.20;57.60;;;;;;4972706;28;20069;-52
2022/07/09 07:50:21;;;;;;;16.80;8.60;;;21.20;57.40;;;;;;4979687;28;20057;-51
2022/07/09 07:52:49;;;;;;;16.90;8.63;;;21.20;57.50;;;;;;4975658;28;20058;-58
2022/07/09 07:55:18;;;;;;;10.85;6.95;;;21.20;57.60;;;;;;4974137;28;20050;-54
2022/07/09 07:57:45;;;;;;;17.50;7.53;;;21.30;58.30;;;;;;4978911;28;20521;-48
2022/07/09 08:00:13;;;;;;;12.85;7.50;;;21.40;57.40;;;;;;4981548;28;20055;-54
2022/07/09 08:02:41;;;;;;;13.85;6.68;;;21.40;56.80;;;;;;4976308;28;20057;-52
2022/07/09 08:05:09;;;;;;;13.98;7.47;;;21.50;56.00;;;;;;4972818;28;20054;-54
2022/07/09 08:07:36;;;;;;;17.42;7.38;;;21.50;56.10;;;;;;4974711;28;20054;-50
2022/07/09 08:10:05;;;;;;;10.27;6.05;;;21.60;56.10;;;;;;4977918;28;20050;-53
2022/07/09 08:12:34;;;;;;;11.25;6.97;;;21.60;55.60;;;;;;4977786;28;20069;-58
2022/07/09 08:15:02;;;;;;;11.88;5.57;;;21.60;56.20;;;;;;4977818;28;20050;-59
2022/07/09 08:17:29;;;;;;;9.63;5.55;;;21.60;55.80;;;;;;4982361;28;20062;-47
2022/07/09 08:19:56;;;;;;;11.18;5.20;;;21.70;56.10;;;;;;4981589;28;20503;-59
2022/07/09 08:22:24;;;;;;;15.82;6.40;;;21.80;55.80;;;;;;4979831;28;20058;-60
2022/07/09 08:24:51;;;;;;;8.02;4.63;;;21.90;55.70;;;;;;4977834;28;20065;-52
2022/07/09 08:27:19;;;;;;;9.20;5.40;;;21.90;56.10;;;;;;4979359;28;20057;-52
2022/07/09 08:29:49;;;;;;;11.80;4.93;;;22.00;55.50;;;;;;4981900;28;20503;-48
2022/07/09 08:32:17;;;;;;;10.25;5.63;;;22.10;54.20;;;;;;4978840;28;20058;-48
2022/07/09 08:34:44;;;;;;;12.38;5.47;;;22.10;53.90;;;;;;4980123;28;20114;-50
2022/07/09 08:37:11;;;;;;;6.80;3.55;;;22.10;53.50;;;;;;4981195;28;20054;-57
2022/07/09 08:39:39;;;;;;;9.05;5.45;;;22.20;54.00;;;;;;4980813;28;20054;-58
2022/07/09 08:42:09;;;;;;;9.85;5.68;;;22.20;54.50;;;;;;4979978;28;20054;-57
2022/07/09 08:44:42;;;;;;;13.70;5.65;;;22.20;53.70;;;;;;4982247;28;20058;-54
2022/07/09 08:47:12;;;;;;;9.38;5.05;;;22.30;53.70;;;;;;4978116;28;20058;-55
2022/07/09 08:49:40;;;;;;;8.45;4.45;;;22.30;53.90;;;;;;4979464;28;20532;-54
2022/07/09 08:52:08;;;;;;;15.63;5.95;;;22.40;54.00;;;;;;4981286;28;20058;-50
2022/07/09 08:54:37;;;;;;;7.70;4.78;;;22.50;54.40;;;;;;4983081;28;20054;-52
2022/07/09 08:57:06;;;;;;;13.65;7.10;;;22.60;54.30;;;;;;4979294;28;20058;-55
2022/07/09 08:59:34;;;;;;;15.80;6.43;;;22.60;53.90;;;;;;4981578;28;20050;-60
2022/07/09 09:02:05;;;;;;;11.60;5.45;;;22.70;53.90;;;;;;4981001;28;21115;-53
2022/07/09 09:04:34;;;;;;;15.85;6.82;;;22.70;53.90;;;;;;4979134;28;20051;-60
2022/07/09 09:07:13;;;;;;;6.78;4.00;;;22.80;53.90;;;;;;4980181;28;20054;-51
2022/07/09 09:09:40;;;;;;;9.93;3.58;;;22.80;53.20;;;;;;4983150;28;20065;-58
2022/07/09 09:12:08;;;;;;;7.55;4.50;;;22.80;53.50;;;;;;4982024;28;20065;-56
2022/07/09 09:14:36;;;;;;;7.80;4.68;;;22.90;53.30;;;;;;4979462;28;20050;-55
2022/07/09 09:17:06;;;;;;;14.07;3.65;;;22.90;52.60;;;;;;4978957;28;20134;-52
2022/07/09 09:19:35;;;;;;;8.80;4.15;;;22.90;52.10;;;;;;4980825;28;20062;-56
2022/07/09 09:22:02;;;;;;;15.45;3.85;;;22.90;52.10;;;;;;4981844;28;20936;-55
2022/07/09 09:24:30;;;;;;;6.00;2.67;;;22.90;52.30;;;;;;4982030;28;20414;-55
2022/07/09 09:26:58;;;;;;;8.43;3.50;;;23.00;52.60;;;;;;4978849;28;20058;-56
2022/07/09 09:29:27;;;;;;;6.25;3.33;;;23.10;52.80;;;;;;4981568;28;20069;-48
2022/07/09 09:31:55;;;;;;;5.82;2.92;;;23.20;51.20;;;;;;4986051;28;20077;-48
2022/07/09 09:34:23;;;;;;;19.02;3.55;;;23.30;50.70;;;;;;4982936;28;20046;-49
2022/07/09 09:36:54;;;;;;;6.20;3.22;;;23.30;50.70;;;;;;4981514;28;20058;-55
2022/07/09 09:39:24;;;;;;;5.35;2.63;;;23.30;50.80;;;;;;4983416;28;20050;-48
2022/07/09 09:41:53;;;;;;;5.72;2.50;;;23.30;50.00;;;;;;4983353;28;20054;-56
2022/07/09 09:44:23;;;;;;;6.72;2.75;;;23.30;50.00;;;;;;4983146;28;20062;-57
2022/07/09 09:46:51;;;;;;;4.38;2.38;;;23.40;50.50;;;;;;4982323;28;20081;-54
2022/07/09 09:49:19;;;;;;;7.53;3.13;;;23.40;50.30;;;;;;4985408;28;20081;-55
2022/07/09 09:51:57;;;;;;;5.18;2.70;;;23.50;50.00;;;;;;4986256;28;20050;-58
2022/07/09 09:54:24;;;;;;;4.50;2.38;;;23.40;50.10;;;;;;4985055;28;20054;-46
2022/07/09 09:56:53;;;;;;;4.57;2.28;;;23.50;50.00;;;;;;4981109;28;20058;-57
2022/07/09 09:59:20;;;;;;;5.28;2.30;;;23.60;50.60;;;;;;4981811;28;20058;-59
2022/07/09 10:01:48;;;;;;;5.60;2.58;;;23.60;50.20;;;;;;4984336;28;20053;-50
2022/07/09 10:04:16;;;;;;;5.38;2.60;;;23.70;49.80;;;;;;4984467;28;20122;-58
2022/07/09 10:06:44;;;;;;;4.05;2.67;;;23.80;49.00;;;;;;4981528;28;20058;-47
2022/07/09 10:09:15;;;;;;;5.25;2.33;;;23.80;48.80;;;;;;4984803;28;20065;-58
2022/07/09 10:11:44;;;;;;;9.23;2.60;;;23.90;49.70;;;;;;4983438;28;20050;-59
2022/07/09 10:14:19;;;;;;;4.45;2.55;;;24.00;50.60;;;;;;4981416;28;20529;-57
2022/07/09 10:16:47;;;;;;;5.32;1.95;;;24.00;49.80;;;;;;4982203;28;20491;-58
2022/07/09 10:19:25;;;;;;;7.05;3.08;;;24.20;49.70;;;;;;4985187;28;20058;-60
2022/07/09 10:21:54;;;;;;;4.13;2.45;;;24.20;47.80;;;;;;4985315;28;20050;-49
2022/07/09 10:24:27;;;;;;;6.15;3.13;;;24.30;48.30;;;;;;4985458;28;20091;-58
2022/07/09 10:27:05;;;;;;;5.97;3.03;;;24.30;46.90;;;;;;4981917;28;20430;-47
2022/07/09 10:29:33;;;;;;;10.82;2.67;;;24.40;47.50;;;;;;4982117;28;20054;-53
2022/07/09 10:32:01;;;;;;;8.85;2.70;;;24.30;47.80;;;;;;4982738;28;20050;-59
2022/07/09 10:34:55;;;;;;;8.13;2.28;;;24.30;47.20;;;;;;4982224;28;20061;-57
2022/07/09 10:37:35;;;;;;;4.35;2.20;;;24.40;47.80;;;;;;4983434;28;20066;-61
2022/07/09 10:40:11;;;;;;;5.07;2.50;;;24.50;48.10;;;;;;4983083;28;20058;-54
2022/07/09 10:42:39;;;;;;;3.75;1.98;;;24.50;47.60;;;;;;4981439;28;20046;-56
2022/07/09 10:45:23;;;;;;;4.75;2.10;;;24.70;47.60;;;;;;4982641;28;20069;-54
2022/07/09 10:47:52;;;;;;;;;;;24.80;47.00;;;;;;4982496;28;20054;-47
2022/07/09 10:50:20;;;;;;;3.83;1.33;;;24.90;47.20;;;;;;4984019;28;19933;-58
2022/07/09 10:52:48;;;;;;;2.88;1.70;;;25.00;46.50;;;;;;4983187;28;20058;-53
2022/07/09 10:55:18;;;;;;;3.67;1.98;;;25.00;46.30;;;;;;4980975;28;20525;-60
2022/07/09 10:57:46;;;;;;;5.85;1.90;;;25.00;45.90;;;;;;4982059;28;20050;-56
2022/07/09 11:00:17;;;;;;;4.15;2.17;;;25.00;45.80;;;;;;4985436;28;20081;-55
2022/07/09 11:02:55;;;;;;;2.10;1.52;;;25.10;46.30;;;;;;4981867;28;20054;-57
2022/07/09 11:05:24;;;;;;;3.88;1.67;;;25.10;46.20;;;;;;4983276;28;21524;-59
2022/07/09 11:08:00;;;;;;;8.32;1.67;;;25.10;46.50;;;;;;4984665;28;20406;-52
2022/07/09 11:10:30;;;;;;;3.08;1.48;;;25.10;45.50;;;;;;4979951;28;20050;-60
2022/07/09 11:12:59;;;;;;;3.70;1.83;;;25.20;45.70;;;;;;4980079;28;20054;-59
2022/07/09 11:15:28;;;;;;;6.03;1.55;;;25.20;46.30;;;;;;4981248;28;20058;-53
2022/07/09 11:17:57;;;;;;;4.90;1.73;;;25.30;46.60;;;;;;4980234;28;20058;-57
2022/07/09 11:20:25;;;;;;;4.43;2.13;;;25.30;45.20;;;;;;4983245;28;20066;-53
2022/07/09 11:22:56;;;;;;;2.17;1.42;;;25.30;45.00;;;;;;4983559;28;20065;-56
2022/07/09 11:25:25;;;;;;;1.70;1.40;;;25.40;45.40;;;;;;4979467;28;20054;-59
2022/07/09 11:27:54;;;;;;;2.78;1.52;;;25.40;45.40;;;;;;4983186;28;20069;-59
2022/07/09 11:30:21;;;;;;;4.32;1.88;;;25.40;44.80;;;;;;4980286;28;20054;-55
2022/07/09 11:32:49;;;;;;;1.38;1.17;;;25.40;43.80;;;;;;4978470;28;20058;-56
2022/07/09 11:35:27;;;;;;;3.95;1.40;;;25.40;44.40;;;;;;4979207;28;20050;-53
2022/07/09 11:37:56;;;;;;;2.47;1.48;;;25.40;45.10;;;;;;4982814;28;20509;-56
2022/07/09 11:40:23;;;;;;;4.97;1.58;;;25.50;45.60;;;;;;4981549;28;20058;-57
2022/07/09 11:42:51;;;;;;;2.25;1.20;;;25.50;44.40;;;;;;4980650;28;20050;-61
2022/07/09 11:45:25;;;;;;;3.88;1.40;;;25.50;44.80;;;;;;4980316;28;20073;-51
2022/07/09 11:48:04;;;;;;;3.38;1.40;;;25.50;44.10;;;;;;4980777;28;20065;-57
2022/07/09 11:50:32;;;;;;;3.15;1.40;;;25.50;44.60;;;;;;4980688;28;20065;-56
2022/07/09 11:53:00;;;;;;;4.95;1.30;;;25.50;43.70;;;;;;4982842;28;20077;-58
2022/07/09 11:55:31;;;;;;;1.70;1.27;;;25.40;43.90;;;;;;4979705;28;20058;-60
2022/07/09 11:58:00;;;;;;;4.07;1.02;;;25.40;44.30;;;;;;4981074;28;20057;-60
2022/07/09 12:00:31;;;;;;;2.50;0.95;;;25.30;44.10;;;;;;4981866;28;20050;-57
2022/07/09 12:03:00;;;;;;;1.50;1.08;;;25.30;44.30;;;;;;4981238;28;20690;-51
2022/07/09 12:05:31;;;;;;;2.95;1.05;;;25.20;44.50;;;;;;4981104;28;20058;-55
2022/07/09 12:07:59;;;;;;;4.15;1.27;;;25.20;44.30;;;;;;4981139;28;20058;-61
2022/07/09 12:10:29;;;;;;;3.33;1.23;;;25.20;43.70;;;;;;4979103;28;20046;-56
2022/07/09 12:12:57;;;;;;;1.73;0.90;;;25.20;44.10;;;;;;4979817;28;20056;-56
2022/07/09 12:15:25;;;;;;;4.70;1.38;;;25.10;44.20;;;;;;4977315;28;20058;-57
2022/07/09 12:17:55;;;;;;;1.10;1.00;;;25.10;44.00;;;;;;4977932;28;20592;-58
2022/07/09 12:20:23;;;;;;;2.88;1.10;;;25.00;43.80;;;;;;4981948;28;20050;-55
2022/07/09 12:22:51;;;;;;;1.65;0.93;;;25.00;44.30;;;;;;4980664;28;20070;-57
2022/07/09 12:25:19;;;;;;;2.85;1.13;;;25.00;44.70;;;;;;4982629;28;20418;-56
2022/07/09 12:27:47;;;;;;;6.28;1.17;;;24.90;45.60;;;;;;4982503;28;20050;-55
2022/07/09 12:30:14;;;;;;;4.45;1.25;;;25.00;45.00;;;;;;4978017;28;20062;-57
2022/07/09 12:32:42;;;;;;;2.35;1.00;;;25.00;44.70;;;;;;4979307;28;20061;-61
2022/07/09 12:35:12;;;;;;;3.05;1.23;;;25.00;45.10;;;;;;4979271;28;20395;-52
2022/07/09 12:37:40;;;;;;;8.48;1.40;;;25.00;44.70;;;;;;4982446;28;20050;-60
2022/07/09 12:40:10;;;;;;;2.20;1.15;;;25.00;44.80;;;;;;4982954;28;20058;-48
2022/07/09 12:42:38;;;;;;;3.75;1.10;;;25.00;44.30;;;;;;4982445;28;20046;-50
2022/07/09 12:45:06;;;;;;;5.47;1.30;;;25.00;44.30;;;;;;4983071;28;20081;-51
2022/07/09 12:47:34;;;;;;;9.23;1.65;;;25.00;44.60;;;;;;4980735;28;20054;-58
2022/07/09 12:50:03;;;;;;;3.67;1.45;;;25.00;44.30;;;;;;4982522;28;20061;-59
2022/07/09 12:52:33;;;;;;;5.15;1.33;;;25.00;44.60;;;;;;4980470;28;20562;-53